MSC Fillippa — A8XT7 — position and weather

sailwx.info

Track history (hours):
 
Tides and Currents Weather Stations Pressure Air Temp Water Temp Dewpoint Dewpoint Depression Visibility Wind Speed Wind Dir Waves Ship Positions

MSC Fillippa

Last reported at 2017-Sep-21 17:30 UTC. Time now 2017-Sep-21 18:01 UTC.
Position N 51°58' E 001°17'.

Length 366 m; draft 9.5 m.

Type: Ship (hazmat cat A). MMSI: 636092168.

Date/timePositionNaut miles runAvg speedWind from/ knotsBaromVisibWave heightAir tempDewpointWater temp
2017-Sep-21 17:30N 51°58' E 001°17'0 0.0
2017-Sep-21 17:00N 51°58' E 001°17'0 0.0
2017-Sep-21 16:30N 51°58' E 001°17'0 0.0
2017-Sep-21 16:00N 51°58' E 001°17'0 0.0
2017-Sep-21 15:30N 51°58' E 001°17'0 0.0
2017-Sep-21 15:00N 51°58' E 001°17'0 0.0
2017-Sep-21 14:30N 51°58' E 001°17'0 0.0
2017-Sep-21 14:00N 51°58' E 001°17'0 0.0
2017-Sep-21 13:30N 51°58' E 001°17'0 0.0
2017-Sep-21 13:00N 51°58' E 001°17'0 0.0
2017-Sep-21 12:30N 51°58' E 001°17'0 0.0
2017-Sep-21 12:00N 51°58' E 001°17'0 0.0
2017-Sep-21 11:30N 51°58' E 001°17'0 1.0
2017-Sep-21 11:01N 51°57' E 001°18'2 4.8
2017-Sep-21 10:30N 51°55' E 001°20'816.7
2017-Sep-21 10:00N 51°56' E 001°33'612.8
2017-Sep-21 09:30N 51°51' E 001°41'3 5.2
2017-Sep-21 09:00N 51°51' E 001°45'1 1.5
2017-Sep-21 08:30N 51°51' E 001°46'1 1.3
2017-Sep-21 08:00N 51°51' E 001°47'1 2.2
2017-Sep-21 07:30N 51°52' E 001°48'2 4.3
2017-Sep-21 07:01N 51°54' E 001°48'1 1.6
2017-Sep-21 06:30N 51°53' E 001°48'0 0.7
2017-Sep-21 06:00N 51°53' E 001°48'1 1.0
2017-Sep-21 05:30N 51°53' E 001°48'1 2.5
2017-Sep-21 05:00N 51°52' E 001°49'2 4.0
2017-Sep-21 04:30N 51°50' E 001°50'2 4.8
2017-Sep-21 04:00N 51°50' E 001°54'2 4.2
2017-Sep-21 03:30N 51°51' E 001°57'2 4.4
2017-Sep-21 03:00N 51°52' E 002°01'2 4.3
2017-Sep-21 02:30N 51°53' E 002°04'2 4.3
2017-Sep-21 02:00N 51°54' E 002°07'2 4.7
2017-Sep-21 01:30N 51°55' E 002°10'36 9.4
2017-Sep-20 21:44N 52°02' E 003°07'313.3
2017-Sep-20 21:31N 52°02' E 003°11'10 8.7
2017-Sep-20 20:18N 51°53' E 003°21'3 7.7
2017-Sep-20 19:54N 51°50' E 003°21'0 0.3
2017-Sep-20 19:25N 51°50' E 003°21'0 0.0
2017-Sep-20 17:43N 51°50' E 003°21'0 0.0
2017-Sep-20 08:02N 51°50' E 003°21'0 0.0
2017-Sep-20 07:58N 51°50' E 003°21'0 0.1
2017-Sep-20 05:37N 51°50' E 003°21'0 0.0
2017-Sep-20 05:25N 51°50' E 003°21'0 0.0
2017-Sep-20 04:25N 51°50' E 003°21'0 0.0
2017-Sep-20 02:37N 51°50' E 003°21'0 0.0
2017-Sep-20 02:22N 51°50' E 003°21'0 0.0
2017-Sep-20 00:52N 51°50' E 003°21'0 0.0
2017-Sep-20 00:10N 51°50' E 003°21'0 0.0
2017-Sep-19 23:38N 51°50' E 003°21'0 0.0
2017-Sep-19 23:19N 51°50' E 003°21'0 0.0
2017-Sep-19 19:01N 51°50' E 003°21'0 0.0
2017-Sep-19 18:40N 51°50' E 003°21'0 0.0
2017-Sep-19 18:28N 51°50' E 003°21'0 0.0
2017-Sep-19 17:49N 51°50' E 003°21'0 0.0
2017-Sep-19 16:13N 51°50' E 003°21'0 0.1
2017-Sep-19 15:58N 51°50' E 003°21'0 0.1
2017-Sep-19 15:22N 51°50' E 003°21'0 0.0
2017-Sep-19 14:59N 51°50' E 003°21'0 0.0
2017-Sep-19 14:04N 51°50' E 003°21'0 0.0
2017-Sep-19 13:55N 51°50' E 003°21'0 0.0
2017-Sep-19 13:28N 51°50' E 003°21'0 0.0
2017-Sep-19 12:55N 51°50' E 003°21'0 0.0
2017-Sep-19 11:58N 51°50' E 003°21'0 0.1
2017-Sep-19 11:28N 51°50' E 003°21'0 0.1
2017-Sep-19 10:55N 51°50' E 003°21'0 0.1
2017-Sep-19 09:58N 51°50' E 003°21'0 0.0
2017-Sep-19 09:25N 51°50' E 003°21'0 0.0
2017-Sep-19 07:07N 51°50' E 003°21'0 0.0
2017-Sep-19 06:01N 51°50' E 003°21'0 0.0
2017-Sep-19 05:58N 51°50' E 003°21'0 0.0
2017-Sep-19 04:46N 51°50' E 003°21'0 0.1
2017-Sep-19 04:19N 51°50' E 003°21'0 0.1
2017-Sep-19 03:55N 51°50' E 003°21'0 0.2
2017-Sep-19 03:25N 51°50' E 003°21'0 0.1
2017-Sep-19 02:58N 51°50' E 003°21'0 0.0
2017-Sep-19 02:01N 51°50' E 003°21'0 0.0
2017-Sep-19 01:58N 51°50' E 003°21'0 0.0
2017-Sep-19 01:16N 51°50' E 003°21'0 0.0
2017-Sep-19 00:58N 51°50' E 003°21'0 0.1
2017-Sep-19 00:25N 51°50' E 003°21'0 0.1
2017-Sep-18 23:49N 51°50' E 003°21'0 0.0
2017-Sep-18 23:25N 51°50' E 003°21'0 0.0
2017-Sep-18 21:22N 51°50' E 003°21'0 0.0
2017-Sep-18 19:52N 51°50' E 003°21'0 0.0
2017-Sep-18 19:19N 51°50' E 003°21'0 0.0
2017-Sep-18 18:52N 51°50' E 003°21'0 0.0
2017-Sep-18 18:23N 51°50' E 003°21'0 0.0
2017-Sep-18 17:52N 51°50' E 003°21'0 0.0
2017-Sep-18 16:22N 51°50' E 003°21'0 0.1
2017-Sep-18 14:40N 51°50' E 003°21'0 0.0
2017-Sep-18 13:26N 51°50' E 003°21'0 0.0
2017-Sep-18 10:01N 51°50' E 003°21'0 0.0
2017-Sep-18 08:40N 51°50' E 003°21'0 0.0
2017-Sep-18 07:29N 51°50' E 003°21'0 0.0
2017-Sep-18 03:49N 51°50' E 003°21'0 0.0
2017-Sep-18 00:34N 51°50' E 003°21'0 0.0
2017-Sep-18 00:25N 51°50' E 003°21'0 0.0
2017-Sep-17 23:58N 51°50' E 003°21'0 0.0
2017-Sep-17 22:43N 51°50' E 003°21'0 0.1
2017-Sep-17 22:25N 51°50' E 003°21'0 0.1
2017-Sep-17 21:37N 51°50' E 003°21'0 0.0
2017-Sep-17 17:58N 51°50' E 003°21'0 0.1
2017-Sep-17 16:14N 51°50' E 003°21'0 0.1
2017-Sep-17 15:55N 51°50' E 003°21'0 0.0
2017-Sep-17 15:13N 51°50' E 003°21'0 0.0
2017-Sep-17 08:43N 51°50' E 003°21'0 0.1
2017-Sep-17 08:25N 51°50' E 003°21'0 0.1
2017-Sep-17 07:37N 51°50' E 003°21'0 0.1
2017-Sep-17 07:25N 51°50' E 003°21'0 0.2
2017-Sep-17 06:58N 51°50' E 003°21'0 0.0
2017-Sep-17 05:01N 51°50' E 003°21'0 0.1
2017-Sep-17 04:34N 51°50' E 003°21'0 0.4
2017-Sep-17 04:28N 51°50' E 003°21'0 0.3
2017-Sep-17 03:58N 51°50' E 003°21'0 0.1
2017-Sep-17 03:25N 51°50' E 003°21'0 0.1
2017-Sep-17 02:55N 51°50' E 003°21'0 0.0
2017-Sep-17 01:58N 51°50' E 003°21'0 0.0
2017-Sep-17 01:25N 51°50' E 003°21'0 0.0
2017-Sep-17 00:59N 51°50' E 003°21'0 0.0
2017-Sep-17 00:25N 51°50' E 003°21'0 0.0
2017-Sep-16 23:58N 51°50' E 003°21'0 0.0
2017-Sep-16 23:22N 51°50' E 003°21'0 0.0
2017-Sep-16 22:56N 51°50' E 003°21'0 0.0
2017-Sep-16 22:28N 51°50' E 003°21'0 0.0
2017-Sep-16 21:46N 51°50' E 003°21'0 0.1
2017-Sep-16 21:19N 51°50' E 003°21'0 0.1
2017-Sep-16 20:10N 51°50' E 003°21'0 0.1
2017-Sep-16 18:55N 51°50' E 003°21'0 0.0
2017-Sep-16 18:28N 51°50' E 003°21'0 0.0
2017-Sep-16 17:58N 51°50' E 003°21'0 0.0
2017-Sep-16 17:25N 51°50' E 003°21'0 0.1
2017-Sep-16 15:19N 51°50' E 003°21'0 0.0
2017-Sep-16 14:46N 51°50' E 003°21'0 0.0
2017-Sep-16 11:32N 51°50' E 003°21'0 0.0
2017-Sep-16 06:11N 51°50' E 003°21'0 0.0
2017-Sep-16 05:56N 51°50' E 003°21'0 0.0
2017-Sep-16 05:26N 51°50' E 003°21'0 0.0
2017-Sep-16 04:47N 51°50' E 003°21'0 0.0
2017-Sep-16 04:29N 51°50' E 003°21'0 0.0
2017-Sep-16 03:38N 51°50' E 003°21'0 0.1
2017-Sep-16 03:29N 51°50' E 003°21'0 0.0
2017-Sep-16 02:14N 51°50' E 003°21'0 0.0
2017-Sep-16 01:59N 51°50' E 003°21'0 0.0
2017-Sep-16 01:11N 51°50' E 003°21'0 0.0
2017-Sep-16 00:53N 51°50' E 003°21'0 0.0
2017-Sep-16 00:17N 51°50' E 003°21'0 0.0
2017-Sep-15 23:56N 51°50' E 003°21'0 0.0
2017-Sep-15 23:20N 51°50' E 003°21'0 0.0
2017-Sep-15 22:50N 51°50' E 003°21'0 0.1
2017-Sep-15 22:29N 51°50' E 003°21'0 0.0
2017-Sep-15 22:00N 51°50' E 003°21'0 0.0
2017-Sep-15 21:27N 51°50' E 003°21'0 0.0
2017-Sep-15 19:57N 51°50' E 003°21'0 0.0
2017-Sep-15 17:39N 51°50' E 003°21'0 0.0
2017-Sep-15 17:12N 51°50' E 003°21'0 0.0
2017-Sep-15 17:00N 51°50' E 003°21'0 0.0
2017-Sep-15 16:27N 51°50' E 003°21'0 0.0
2017-Sep-15 15:45N 51°50' E 003°21'0 0.0
2017-Sep-15 12:54N 51°50' E 003°21'0 0.0
2017-Sep-15 12:24N 51°50' E 003°22'0 0.0
2017-Sep-15 06:06N 51°50' E 003°21'0 0.0
2017-Sep-15 04:48N 51°50' E 003°21'0 0.1
2017-Sep-15 04:24N 51°50' E 003°21'0 0.0
2017-Sep-15 03:39N 51°50' E 003°21'0 0.0
2017-Sep-15 03:30N 51°50' E 003°21'0 0.0
2017-Sep-15 02:48N 51°50' E 003°21'0 0.0
2017-Sep-15 02:24N 51°50' E 003°21'0 0.0
2017-Sep-15 01:09N 51°50' E 003°21'0 0.1
2017-Sep-14 22:51N 51°50' E 003°22'0 0.0
2017-Sep-14 21:33N 51°50' E 003°22'0 0.0
2017-Sep-14 21:30N 51°50' E 003°22'0 0.0
2017-Sep-14 20:57N 51°50' E 003°22'0 0.0
2017-Sep-14 10:45N 51°50' E 003°22'0 0.1
2017-Sep-14 10:30N 51°50' E 003°22'0 0.0
2017-Sep-14 10:00N 51°50' E 003°22'0 0.0
2017-Sep-14 09:30N 51°50' E 003°22'0 0.0
2017-Sep-14 09:00N 51°50' E 003°22'0 0.0
2017-Sep-14 08:30N 51°50' E 003°22'0 0.0
2017-Sep-14 08:00N 51°50' E 003°22'0 0.0
2017-Sep-14 07:30N 51°50' E 003°22'0 0.1
2017-Sep-14 07:00N 51°50' E 003°22'0 0.0
2017-Sep-14 06:30N 51°50' E 003°22'0 0.0
2017-Sep-14 06:00N 51°50' E 003°22'0 0.0
2017-Sep-14 05:30N 51°50' E 003°22'0 0.0
2017-Sep-14 05:00N 51°50' E 003°22'0 0.1
2017-Sep-14 04:30N 51°50' E 003°22'0 0.0
2017-Sep-14 04:00N 51°50' E 003°22'0 0.0
2017-Sep-14 03:30N 51°50' E 003°22'0 0.0
2017-Sep-14 03:00N 51°50' E 003°22'0 0.0
2017-Sep-14 02:30N 51°50' E 003°22'0 0.0
2017-Sep-14 02:00N 51°50' E 003°22'0 0.0
2017-Sep-14 01:30N 51°50' E 003°22'0 0.0
2017-Sep-14 01:00N 51°50' E 003°22'0 0.0
2017-Sep-14 00:30N 51°50' E 003°22'0 0.0
2017-Sep-14 00:00N 51°50' E 003°22'0 0.0
2017-Sep-13 23:30N 51°50' E 003°22'0 0.0
2017-Sep-13 23:00N 51°50' E 003°22'0 0.0
2017-Sep-13 22:30N 51°50' E 003°22'0 0.0
2017-Sep-13 22:00N 51°50' E 003°22'0 0.0
2017-Sep-13 21:30N 51°50' E 003°22'0 0.0
2017-Sep-13 21:00N 51°50' E 003°22'0 0.0
2017-Sep-13 20:30N 51°50' E 003°22'0 0.0
2017-Sep-13 20:00N 51°50' E 003°22'0 0.0
2017-Sep-13 19:30N 51°50' E 003°22'0 0.0
2017-Sep-13 19:00N 51°50' E 003°22'0 0.0
2017-Sep-13 18:30N 51°50' E 003°22'0 0.0
2017-Sep-13 18:00N 51°50' E 003°22'0 0.0
2017-Sep-13 17:30N 51°50' E 003°22'0 0.0
2017-Sep-13 17:00N 51°50' E 003°22'0 0.0
2017-Sep-13 16:30N 51°50' E 003°22'0 0.0
2017-Sep-13 15:59N 51°50' E 003°22'0 0.1
2017-Sep-13 15:30N 51°50' E 003°22'0 0.0
2017-Sep-13 15:00N 51°50' E 003°22'0 0.0
2017-Sep-13 14:30N 51°50' E 003°22'0 0.0
2017-Sep-13 14:00N 51°50' E 003°22'0 0.0
2017-Sep-13 13:29N 51°50' E 003°22'0 0.0
2017-Sep-13 13:00N 51°50' E 003°22'0 0.0
2017-Sep-13 12:30N 51°50' E 003°22'0 0.0
2017-Sep-13 12:00N 51°50' E 003°22'0 0.0
2017-Sep-13 11:30N 51°50' E 003°22'0 0.0
2017-Sep-13 11:00N 51°50' E 003°22'0 0.0
2017-Sep-13 10:30N 51°50' E 003°22'0 0.0
2017-Sep-13 10:00N 51°50' E 003°22'0 0.0
2017-Sep-13 09:30N 51°50' E 003°22'0 0.0
2017-Sep-13 08:59N 51°50' E 003°22'0 0.2
2017-Sep-13 08:30N 51°50' E 003°21'0 0.0
2017-Sep-13 08:00N 51°50' E 003°21'0 0.0
2017-Sep-13 07:30N 51°50' E 003°21'0 0.0
2017-Sep-13 07:00N 51°50' E 003°21'0 0.0
2017-Sep-13 06:30N 51°50' E 003°21'0 0.0
2017-Sep-13 06:00N 51°50' E 003°21'0 0.0
2017-Sep-13 05:30N 51°50' E 003°21'0 0.1
2017-Sep-13 05:00N 51°50' E 003°21'0 0.1
2017-Sep-13 04:30N 51°50' E 003°21'0 0.0
2017-Sep-13 04:00N 51°50' E 003°21'0 0.2
2017-Sep-13 03:30N 51°50' E 003°21'0 0.0
2017-Sep-13 03:00N 51°50' E 003°21'0 0.1
2017-Sep-13 02:30N 51°50' E 003°21'0 0.1
2017-Sep-13 02:00N 51°50' E 003°21'0 0.0
2017-Sep-13 01:30N 51°50' E 003°21'0 0.0
2017-Sep-13 01:00N 51°50' E 003°21'0 0.0
2017-Sep-13 00:30N 51°50' E 003°21'0 0.1
2017-Sep-13 00:00N 51°50' E 003°21'0 0.0
2017-Sep-12 23:30N 51°50' E 003°21'0 0.0
2017-Sep-12 23:00N 51°50' E 003°21'0 0.0
2017-Sep-12 22:30N 51°50' E 003°21'0 0.0
2017-Sep-12 22:00N 51°50' E 003°21'0 0.1
2017-Sep-12 21:30N 51°50' E 003°21'0 0.0
2017-Sep-12 21:00N 51°50' E 003°21'0 0.0
2017-Sep-12 20:29N 51°50' E 003°21'0 0.1
2017-Sep-12 20:00N 51°50' E 003°21'0 0.0
2017-Sep-12 19:30N 51°50' E 003°21'0 0.2
2017-Sep-12 19:00N 51°50' E 003°21'0 0.0
2017-Sep-12 18:30N 51°50' E 003°21'0 0.0
2017-Sep-12 18:00N 51°50' E 003°21'0 0.0
2017-Sep-12 17:30N 51°50' E 003°21'0 0.0
2017-Sep-12 17:00N 51°50' E 003°21'0 0.0
2017-Sep-12 16:30N 51°50' E 003°21'0 0.0
2017-Sep-12 16:00N 51°50' E 003°21'0 0.0
2017-Sep-12 15:30N 51°50' E 003°21'0 0.0
2017-Sep-12 15:00N 51°50' E 003°21'0 0.0
2017-Sep-12 14:30N 51°50' E 003°21'0 0.1
2017-Sep-12 14:00N 51°50' E 003°21'0 0.0
2017-Sep-12 13:30N 51°50' E 003°21'0 0.0
2017-Sep-12 13:00N 51°50' E 003°21'0 0.0
2017-Sep-12 12:30N 51°50' E 003°21'0 0.0
2017-Sep-12 12:00N 51°50' E 003°21'0 0.1
2017-Sep-12 11:30N 51°50' E 003°21'0 0.0
2017-Sep-12 11:00N 51°50' E 003°21'0 0.0
2017-Sep-12 10:30N 51°50' E 003°21'0 0.0
2017-Sep-12 10:00N 51°50' E 003°21'0 0.0
2017-Sep-12 09:30N 51°50' E 003°21'0 0.0
2017-Sep-12 09:00N 51°50' E 003°21'0 0.0
2017-Sep-12 08:30N 51°50' E 003°21'0 0.0
2017-Sep-12 08:00N 51°50' E 003°21'0 0.0
2017-Sep-12 07:30N 51°50' E 003°21'0 0.0
2017-Sep-12 07:00N 51°50' E 003°21'0 0.0
2017-Sep-12 06:30N 51°50' E 003°21'0 0.0
2017-Sep-12 06:00N 51°50' E 003°21'0 0.0
2017-Sep-12 05:30N 51°50' E 003°21'0 0.0
2017-Sep-12 05:00N 51°50' E 003°21'0 0.1
2017-Sep-12 04:30N 51°50' E 003°21'0 0.0
2017-Sep-12 04:00N 51°50' E 003°21'0 0.0
2017-Sep-12 03:30N 51°50' E 003°21'0 0.0
2017-Sep-12 03:00N 51°50' E 003°21'0 0.0
2017-Sep-12 02:30N 51°50' E 003°21'0 0.0
2017-Sep-12 02:00N 51°50' E 003°21'0 0.0
2017-Sep-12 01:30N 51°50' E 003°21'0 0.0
2017-Sep-12 01:00N 51°50' E 003°21'0 0.0
2017-Sep-12 00:30N 51°50' E 003°21'0 0.0
2017-Sep-12 00:00N 51°50' E 003°21'0 0.0
2017-Sep-11 23:30N 51°50' E 003°21'0 0.0
2017-Sep-11 23:00N 51°50' E 003°21'0 0.2
2017-Sep-11 22:30N 51°50' E 003°21'0 0.0
2017-Sep-11 22:00N 51°50' E 003°21'0 0.0
2017-Sep-11 21:30N 51°50' E 003°21'0 0.0
2017-Sep-11 21:00N 51°50' E 003°21'0 0.0
2017-Sep-11 20:30N 51°50' E 003°21'0 0.0
2017-Sep-11 20:00N 51°50' E 003°21'0 0.0
2017-Sep-11 19:30N 51°50' E 003°21'0 0.1
2017-Sep-11 19:00N 51°50' E 003°21'0 0.0
2017-Sep-11 18:30N 51°50' E 003°21'0 0.0
2017-Sep-11 18:00N 51°50' E 003°21'0 0.0
2017-Sep-11 17:30N 51°50' E 003°21'  
Track history (hours):
 
Tides and Currents Weather Stations Pressure Air Temp Water Temp Dewpoint Dewpoint Depression Visibility Wind Speed Wind Dir Waves Ship Positions

MSC Fillippa

Last reported at 2017-Sep-21 17:30 UTC. Time now 2017-Sep-21 18:01 UTC.
Position N 51°58' E 001°17'.

Length 366 m; draft 9.5 m.

Type: Ship (hazmat cat A). MMSI: 636092168.

Date/timePositionNaut miles runAvg speedWind from/ knotsBaromVisibWave heightAir tempDewpointWater temp
2017-Sep-21 17:30N 51°58' E 001°17'0 0.0
2017-Sep-21 17:00N 51°58' E 001°17'0 0.0
2017-Sep-21 16:30N 51°58' E 001°17'0 0.0
2017-Sep-21 16:00N 51°58' E 001°17'0 0.0
2017-Sep-21 15:30N 51°58' E 001°17'0 0.0
2017-Sep-21 15:00N 51°58' E 001°17'0 0.0
2017-Sep-21 14:30N 51°58' E 001°17'0 0.0
2017-Sep-21 14:00N 51°58' E 001°17'0 0.0
2017-Sep-21 13:30N 51°58' E 001°17'0 0.0
2017-Sep-21 13:00N 51°58' E 001°17'0 0.0
2017-Sep-21 12:30N 51°58' E 001°17'0 0.0
2017-Sep-21 12:00N 51°58' E 001°17'0 0.0
2017-Sep-21 11:30N 51°58' E 001°17'0 1.0
2017-Sep-21 11:01N 51°57' E 001°18'2 4.8
2017-Sep-21 10:30N 51°55' E 001°20'816.7
2017-Sep-21 10:00N 51°56' E 001°33'612.8
2017-Sep-21 09:30N 51°51' E 001°41'3 5.2
2017-Sep-21 09:00N 51°51' E 001°45'1 1.5
2017-Sep-21 08:30N 51°51' E 001°46'1 1.3
2017-Sep-21 08:00N 51°51' E 001°47'1 2.2
2017-Sep-21 07:30N 51°52' E 001°48'2 4.3
2017-Sep-21 07:01N 51°54' E 001°48'1 1.6
2017-Sep-21 06:30N 51°53' E 001°48'0 0.7
2017-Sep-21 06:00N 51°53' E 001°48'1 1.0
2017-Sep-21 05:30N 51°53' E 001°48'1 2.5
2017-Sep-21 05:00N 51°52' E 001°49'2 4.0
2017-Sep-21 04:30N 51°50' E 001°50'2 4.8
2017-Sep-21 04:00N 51°50' E 001°54'2 4.2
2017-Sep-21 03:30N 51°51' E 001°57'2 4.4
2017-Sep-21 03:00N 51°52' E 002°01'2 4.3
2017-Sep-21 02:30N 51°53' E 002°04'2 4.3
2017-Sep-21 02:00N 51°54' E 002°07'2 4.7
2017-Sep-21 01:30N 51°55' E 002°10'36 9.4
2017-Sep-20 21:44N 52°02' E 003°07'313.3
2017-Sep-20 21:31N 52°02' E 003°11'10 8.7
2017-Sep-20 20:18N 51°53' E 003°21'3 7.7
2017-Sep-20 19:54N 51°50' E 003°21'0 0.3
2017-Sep-20 19:25N 51°50' E 003°21'0 0.0
2017-Sep-20 17:43N 51°50' E 003°21'0 0.0
2017-Sep-20 08:02N 51°50' E 003°21'0 0.0
2017-Sep-20 07:58N 51°50' E 003°21'0 0.1
2017-Sep-20 05:37N 51°50' E 003°21'0 0.0
2017-Sep-20 05:25N 51°50' E 003°21'0 0.0
2017-Sep-20 04:25N 51°50' E 003°21'0 0.0
2017-Sep-20 02:37N 51°50' E 003°21'0 0.0
2017-Sep-20 02:22N 51°50' E 003°21'0 0.0
2017-Sep-20 00:52N 51°50' E 003°21'0 0.0
2017-Sep-20 00:10N 51°50' E 003°21'0 0.0
2017-Sep-19 23:38N 51°50' E 003°21'0 0.0
2017-Sep-19 23:19N 51°50' E 003°21'0 0.0
2017-Sep-19 19:01N 51°50' E 003°21'0 0.0
2017-Sep-19 18:40N 51°50' E 003°21'0 0.0
2017-Sep-19 18:28N 51°50' E 003°21'0 0.0
2017-Sep-19 17:49N 51°50' E 003°21'0 0.0
2017-Sep-19 16:13N 51°50' E 003°21'0 0.1
2017-Sep-19 15:58N 51°50' E 003°21'0 0.1
2017-Sep-19 15:22N 51°50' E 003°21'0 0.0
2017-Sep-19 14:59N 51°50' E 003°21'0 0.0
2017-Sep-19 14:04N 51°50' E 003°21'0 0.0
2017-Sep-19 13:55N 51°50' E 003°21'0 0.0
2017-Sep-19 13:28N 51°50' E 003°21'0 0.0
2017-Sep-19 12:55N 51°50' E 003°21'0 0.0
2017-Sep-19 11:58N 51°50' E 003°21'0 0.1
2017-Sep-19 11:28N 51°50' E 003°21'0 0.1
2017-Sep-19 10:55N 51°50' E 003°21'0 0.1
2017-Sep-19 09:58N 51°50' E 003°21'0 0.0
2017-Sep-19 09:25N 51°50' E 003°21'0 0.0
2017-Sep-19 07:07N 51°50' E 003°21'0 0.0
2017-Sep-19 06:01N 51°50' E 003°21'0 0.0
2017-Sep-19 05:58N 51°50' E 003°21'0 0.0
2017-Sep-19 04:46N 51°50' E 003°21'0 0.1
2017-Sep-19 04:19N 51°50' E 003°21'0 0.1
2017-Sep-19 03:55N 51°50' E 003°21'0 0.2
2017-Sep-19 03:25N 51°50' E 003°21'0 0.1
2017-Sep-19 02:58N 51°50' E 003°21'0 0.0
2017-Sep-19 02:01N 51°50' E 003°21'0 0.0
2017-Sep-19 01:58N 51°50' E 003°21'0 0.0
2017-Sep-19 01:16N 51°50' E 003°21'0 0.0
2017-Sep-19 00:58N 51°50' E 003°21'0 0.1
2017-Sep-19 00:25N 51°50' E 003°21'0 0.1
2017-Sep-18 23:49N 51°50' E 003°21'0 0.0
2017-Sep-18 23:25N 51°50' E 003°21'0 0.0
2017-Sep-18 21:22N 51°50' E 003°21'0 0.0
2017-Sep-18 19:52N 51°50' E 003°21'0 0.0
2017-Sep-18 19:19N 51°50' E 003°21'0 0.0
2017-Sep-18 18:52N 51°50' E 003°21'0 0.0
2017-Sep-18 18:23N 51°50' E 003°21'0 0.0
2017-Sep-18 17:52N 51°50' E 003°21'0 0.0
2017-Sep-18 16:22N 51°50' E 003°21'0 0.1
2017-Sep-18 14:40N 51°50' E 003°21'0 0.0
2017-Sep-18 13:26N 51°50' E 003°21'0 0.0
2017-Sep-18 10:01N 51°50' E 003°21'0 0.0
2017-Sep-18 08:40N 51°50' E 003°21'0 0.0
2017-Sep-18 07:29N 51°50' E 003°21'0 0.0
2017-Sep-18 03:49N 51°50' E 003°21'0 0.0
2017-Sep-18 00:34N 51°50' E 003°21'0 0.0
2017-Sep-18 00:25N 51°50' E 003°21'0 0.0
2017-Sep-17 23:58N 51°50' E 003°21'0 0.0
2017-Sep-17 22:43N 51°50' E 003°21'0 0.1
2017-Sep-17 22:25N 51°50' E 003°21'0 0.1
2017-Sep-17 21:37N 51°50' E 003°21'0 0.0
2017-Sep-17 17:58N 51°50' E 003°21'0 0.1
2017-Sep-17 16:14N 51°50' E 003°21'0 0.1
2017-Sep-17 15:55N 51°50' E 003°21'0 0.0
2017-Sep-17 15:13N 51°50' E 003°21'0 0.0
2017-Sep-17 08:43N 51°50' E 003°21'0 0.1
2017-Sep-17 08:25N 51°50' E 003°21'0 0.1
2017-Sep-17 07:37N 51°50' E 003°21'0 0.1
2017-Sep-17 07:25N 51°50' E 003°21'0 0.2
2017-Sep-17 06:58N 51°50' E 003°21'0 0.0
2017-Sep-17 05:01N 51°50' E 003°21'0 0.1
2017-Sep-17 04:34N 51°50' E 003°21'0 0.4
2017-Sep-17 04:28N 51°50' E 003°21'0 0.3
2017-Sep-17 03:58N 51°50' E 003°21'0 0.1
2017-Sep-17 03:25N 51°50' E 003°21'0 0.1
2017-Sep-17 02:55N 51°50' E 003°21'0 0.0
2017-Sep-17 01:58N 51°50' E 003°21'0 0.0
2017-Sep-17 01:25N 51°50' E 003°21'0 0.0
2017-Sep-17 00:59N 51°50' E 003°21'0 0.0
2017-Sep-17 00:25N 51°50' E 003°21'0 0.0
2017-Sep-16 23:58N 51°50' E 003°21'0 0.0
2017-Sep-16 23:22N 51°50' E 003°21'0 0.0
2017-Sep-16 22:56N 51°50' E 003°21'0 0.0
2017-Sep-16 22:28N 51°50' E 003°21'0 0.0
2017-Sep-16 21:46N 51°50' E 003°21'0 0.1
2017-Sep-16 21:19N 51°50' E 003°21'0 0.1
2017-Sep-16 20:10N 51°50' E 003°21'0 0.1
2017-Sep-16 18:55N 51°50' E 003°21'0 0.0
2017-Sep-16 18:28N 51°50' E 003°21'0 0.0
2017-Sep-16 17:58N 51°50' E 003°21'0 0.0
2017-Sep-16 17:25N 51°50' E 003°21'0 0.1
2017-Sep-16 15:19N 51°50' E 003°21'0 0.0
2017-Sep-16 14:46N 51°50' E 003°21'0 0.0
2017-Sep-16 11:32N 51°50' E 003°21'0 0.0
2017-Sep-16 06:11N 51°50' E 003°21'0 0.0
2017-Sep-16 05:56N 51°50' E 003°21'0 0.0
2017-Sep-16 05:26N 51°50' E 003°21'0 0.0
2017-Sep-16 04:47N 51°50' E 003°21'0 0.0
2017-Sep-16 04:29N 51°50' E 003°21'0 0.0
2017-Sep-16 03:38N 51°50' E 003°21'0 0.1
2017-Sep-16 03:29N 51°50' E 003°21'0 0.0
2017-Sep-16 02:14N 51°50' E 003°21'0 0.0
2017-Sep-16 01:59N 51°50' E 003°21'0 0.0
2017-Sep-16 01:11N 51°50' E 003°21'0 0.0
2017-Sep-16 00:53N 51°50' E 003°21'0 0.0
2017-Sep-16 00:17N 51°50' E 003°21'0 0.0
2017-Sep-15 23:56N 51°50' E 003°21'0 0.0
2017-Sep-15 23:20N 51°50' E 003°21'0 0.0
2017-Sep-15 22:50N 51°50' E 003°21'0 0.1
2017-Sep-15 22:29N 51°50' E 003°21'0 0.0
2017-Sep-15 22:00N 51°50' E 003°21'0 0.0
2017-Sep-15 21:27N 51°50' E 003°21'0 0.0
2017-Sep-15 19:57N 51°50' E 003°21'0 0.0
2017-Sep-15 17:39N 51°50' E 003°21'0 0.0
2017-Sep-15 17:12N 51°50' E 003°21'0 0.0
2017-Sep-15 17:00N 51°50' E 003°21'0 0.0
2017-Sep-15 16:27N 51°50' E 003°21'0 0.0
2017-Sep-15 15:45N 51°50' E 003°21'0 0.0
2017-Sep-15 12:54N 51°50' E 003°21'0 0.0
2017-Sep-15 12:24N 51°50' E 003°22'0 0.0
2017-Sep-15 06:06N 51°50' E 003°21'0 0.0
2017-Sep-15 04:48N 51°50' E 003°21'0 0.1
2017-Sep-15 04:24N 51°50' E 003°21'0 0.0
2017-Sep-15 03:39N 51°50' E 003°21'0 0.0
2017-Sep-15 03:30N 51°50' E 003°21'0 0.0
2017-Sep-15 02:48N 51°50' E 003°21'0 0.0
2017-Sep-15 02:24N 51°50' E 003°21'0 0.0
2017-Sep-15 01:09N 51°50' E 003°21'0 0.1
2017-Sep-14 22:51N 51°50' E 003°22'0 0.0
2017-Sep-14 21:33N 51°50' E 003°22'0 0.0
2017-Sep-14 21:30N 51°50' E 003°22'0 0.0
2017-Sep-14 20:57N 51°50' E 003°22'0 0.0
2017-Sep-14 10:45N 51°50' E 003°22'0 0.1
2017-Sep-14 10:30N 51°50' E 003°22'0 0.0
2017-Sep-14 10:00N 51°50' E 003°22'0 0.0
2017-Sep-14 09:30N 51°50' E 003°22'0 0.0
2017-Sep-14 09:00N 51°50' E 003°22'0 0.0
2017-Sep-14 08:30N 51°50' E 003°22'0 0.0
2017-Sep-14 08:00N 51°50' E 003°22'0 0.0
2017-Sep-14 07:30N 51°50' E 003°22'0 0.1
2017-Sep-14 07:00N 51°50' E 003°22'0 0.0
2017-Sep-14 06:30N 51°50' E 003°22'0 0.0
2017-Sep-14 06:00N 51°50' E 003°22'0 0.0
2017-Sep-14 05:30N 51°50' E 003°22'0 0.0
2017-Sep-14 05:00N 51°50' E 003°22'0 0.1
2017-Sep-14 04:30N 51°50' E 003°22'0 0.0
2017-Sep-14 04:00N 51°50' E 003°22'0 0.0
2017-Sep-14 03:30N 51°50' E 003°22'0 0.0
2017-Sep-14 03:00N 51°50' E 003°22'0 0.0
2017-Sep-14 02:30N 51°50' E 003°22'0 0.0
2017-Sep-14 02:00N 51°50' E 003°22'0 0.0
2017-Sep-14 01:30N 51°50' E 003°22'0 0.0
2017-Sep-14 01:00N 51°50' E 003°22'0 0.0
2017-Sep-14 00:30N 51°50' E 003°22'0 0.0
2017-Sep-14 00:00N 51°50' E 003°22'0 0.0
2017-Sep-13 23:30N 51°50' E 003°22'0 0.0
2017-Sep-13 23:00N 51°50' E 003°22'0 0.0
2017-Sep-13 22:30N 51°50' E 003°22'0 0.0
2017-Sep-13 22:00N 51°50' E 003°22'0 0.0
2017-Sep-13 21:30N 51°50' E 003°22'0 0.0
2017-Sep-13 21:00N 51°50' E 003°22'0 0.0
2017-Sep-13 20:30N 51°50' E 003°22'0 0.0
2017-Sep-13 20:00N 51°50' E 003°22'0 0.0
2017-Sep-13 19:30N 51°50' E 003°22'0 0.0
2017-Sep-13 19:00N 51°50' E 003°22'0 0.0
2017-Sep-13 18:30N 51°50' E 003°22'0 0.0
2017-Sep-13 18:00N 51°50' E 003°22'0 0.0
2017-Sep-13 17:30N 51°50' E 003°22'0 0.0
2017-Sep-13 17:00N 51°50' E 003°22'0 0.0
2017-Sep-13 16:30N 51°50' E 003°22'0 0.0
2017-Sep-13 15:59N 51°50' E 003°22'0 0.1
2017-Sep-13 15:30N 51°50' E 003°22'0 0.0
2017-Sep-13 15:00N 51°50' E 003°22'0 0.0
2017-Sep-13 14:30N 51°50' E 003°22'0 0.0
2017-Sep-13 14:00N 51°50' E 003°22'0 0.0
2017-Sep-13 13:29N 51°50' E 003°22'0 0.0
2017-Sep-13 13:00N 51°50' E 003°22'0 0.0
2017-Sep-13 12:30N 51°50' E 003°22'0 0.0
2017-Sep-13 12:00N 51°50' E 003°22'0 0.0
2017-Sep-13 11:30N 51°50' E 003°22'0 0.0
2017-Sep-13 11:00N 51°50' E 003°22'0 0.0
2017-Sep-13 10:30N 51°50' E 003°22'0 0.0
2017-Sep-13 10:00N 51°50' E 003°22'0 0.0
2017-Sep-13 09:30N 51°50' E 003°22'0 0.0
2017-Sep-13 08:59N 51°50' E 003°22'0 0.2
2017-Sep-13 08:30N 51°50' E 003°21'0 0.0
2017-Sep-13 08:00N 51°50' E 003°21'0 0.0
2017-Sep-13 07:30N 51°50' E 003°21'0 0.0
2017-Sep-13 07:00N 51°50' E 003°21'0 0.0
2017-Sep-13 06:30N 51°50' E 003°21'0 0.0
2017-Sep-13 06:00N 51°50' E 003°21'0 0.0
2017-Sep-13 05:30N 51°50' E 003°21'0 0.1
2017-Sep-13 05:00N 51°50' E 003°21'0 0.1
2017-Sep-13 04:30N 51°50' E 003°21'0 0.0
2017-Sep-13 04:00N 51°50' E 003°21'0 0.2
2017-Sep-13 03:30N 51°50' E 003°21'0 0.0
2017-Sep-13 03:00N 51°50' E 003°21'0 0.1
2017-Sep-13 02:30N 51°50' E 003°21'0 0.1
2017-Sep-13 02:00N 51°50' E 003°21'0 0.0
2017-Sep-13 01:30N 51°50' E 003°21'0 0.0
2017-Sep-13 01:00N 51°50' E 003°21'0 0.0
2017-Sep-13 00:30N 51°50' E 003°21'0 0.1
2017-Sep-13 00:00N 51°50' E 003°21'0 0.0
2017-Sep-12 23:30N 51°50' E 003°21'0 0.0
2017-Sep-12 23:00N 51°50' E 003°21'0 0.0
2017-Sep-12 22:30N 51°50' E 003°21'0 0.0
2017-Sep-12 22:00N 51°50' E 003°21'0 0.1
2017-Sep-12 21:30N 51°50' E 003°21'0 0.0
2017-Sep-12 21:00N 51°50' E 003°21'0 0.0
2017-Sep-12 20:29N 51°50' E 003°21'0 0.1
2017-Sep-12 20:00N 51°50' E 003°21'0 0.0
2017-Sep-12 19:30N 51°50' E 003°21'0 0.2
2017-Sep-12 19:00N 51°50' E 003°21'0 0.0
2017-Sep-12 18:30N 51°50' E 003°21'0 0.0
2017-Sep-12 18:00N 51°50' E 003°21'0 0.0
2017-Sep-12 17:30N 51°50' E 003°21'0 0.0
2017-Sep-12 17:00N 51°50' E 003°21'0 0.0
2017-Sep-12 16:30N 51°50' E 003°21'0 0.0
2017-Sep-12 16:00N 51°50' E 003°21'0 0.0
2017-Sep-12 15:30N 51°50' E 003°21'0 0.0
2017-Sep-12 15:00N 51°50' E 003°21'0 0.0
2017-Sep-12 14:30N 51°50' E 003°21'0 0.1
2017-Sep-12 14:00N 51°50' E 003°21'0 0.0
2017-Sep-12 13:30N 51°50' E 003°21'0 0.0
2017-Sep-12 13:00N 51°50' E 003°21'0 0.0
2017-Sep-12 12:30N 51°50' E 003°21'0 0.0
2017-Sep-12 12:00N 51°50' E 003°21'0 0.1
2017-Sep-12 11:30N 51°50' E 003°21'0 0.0
2017-Sep-12 11:00N 51°50' E 003°21'0 0.0
2017-Sep-12 10:30N 51°50' E 003°21'0 0.0
2017-Sep-12 10:00N 51°50' E 003°21'0 0.0
2017-Sep-12 09:30N 51°50' E 003°21'0 0.0
2017-Sep-12 09:00N 51°50' E 003°21'0 0.0
2017-Sep-12 08:30N 51°50' E 003°21'0 0.0
2017-Sep-12 08:00N 51°50' E 003°21'0 0.0
2017-Sep-12 07:30N 51°50' E 003°21'0 0.0
2017-Sep-12 07:00N 51°50' E 003°21'0 0.0
2017-Sep-12 06:30N 51°50' E 003°21'0 0.0
2017-Sep-12 06:00N 51°50' E 003°21'0 0.0
2017-Sep-12 05:30N 51°50' E 003°21'0 0.0
2017-Sep-12 05:00N 51°50' E 003°21'0 0.1
2017-Sep-12 04:30N 51°50' E 003°21'0 0.0
2017-Sep-12 04:00N 51°50' E 003°21'0 0.0
2017-Sep-12 03:30N 51°50' E 003°21'0 0.0
2017-Sep-12 03:00N 51°50' E 003°21'0 0.0
2017-Sep-12 02:30N 51°50' E 003°21'0 0.0
2017-Sep-12 02:00N 51°50' E 003°21'0 0.0
2017-Sep-12 01:30N 51°50' E 003°21'0 0.0
2017-Sep-12 01:00N 51°50' E 003°21'0 0.0
2017-Sep-12 00:30N 51°50' E 003°21'0 0.0
2017-Sep-12 00:00N 51°50' E 003°21'0 0.0
2017-Sep-11 23:30N 51°50' E 003°21'0 0.0
2017-Sep-11 23:00N 51°50' E 003°21'0 0.2
2017-Sep-11 22:30N 51°50' E 003°21'0 0.0
2017-Sep-11 22:00N 51°50' E 003°21'0 0.0
2017-Sep-11 21:30N 51°50' E 003°21'0 0.0
2017-Sep-11 21:00N 51°50' E 003°21'0 0.0
2017-Sep-11 20:30N 51°50' E 003°21'0 0.0
2017-Sep-11 20:00N 51°50' E 003°21'0 0.0
2017-Sep-11 19:30N 51°50' E 003°21'0 0.1
2017-Sep-11 19:00N 51°50' E 003°21'0 0.0
2017-Sep-11 18:30N 51°50' E 003°21'0 0.0
2017-Sep-11 18:00N 51°50' E 003°21'0 0.0
2017-Sep-11 17:30N 51°50' E 003°21'  

Dump ship's entire track history